createdAt,value
2024-04-14T00:00:25.059Z,99832.95
2024-04-14T00:03:26.468Z,99825.11
2024-04-14T00:06:28.281Z,99823.80
2024-04-14T00:09:29.735Z,99825.89
2024-04-14T00:12:31.111Z,99827.73
2024-04-14T00:15:32.513Z,99819.70
2024-04-14T00:18:34.104Z,99812.06
2024-04-14T00:21:36.431Z,99805.10
2024-04-14T00:24:37.812Z,99803.75
2024-04-14T00:27:39.231Z,99801.91
2024-04-14T00:30:42.468Z,99807.51
2024-04-14T00:33:43.963Z,99803.00
2024-04-14T00:36:45.335Z,99799.03
2024-04-14T00:39:46.752Z,99790.53
2024-04-14T00:42:48.127Z,99785.06
2024-04-14T00:45:50.888Z,99784.88
2024-04-14T00:48:52.463Z,99775.53
2024-04-14T00:51:55.323Z,99774.91
2024-04-14T00:54:57.223Z,99767.23
2024-04-14T00:57:58.938Z,99765.17
2024-04-14T01:01:00.518Z,99761.94
2024-04-14T01:04:02.124Z,99752.63
2024-04-14T01:07:03.652Z,99750.81
2024-04-14T01:10:06.114Z,99746.78
2024-04-14T01:13:07.539Z,99742.34
2024-04-14T01:16:08.817Z,99738.77
2024-04-14T01:19:10.264Z,99736.87
2024-04-14T01:22:11.609Z,99727.96
2024-04-14T01:25:13.111Z,99728.08
2024-04-14T01:28:14.518Z,99723.18
2024-04-14T01:31:15.906Z,99718.04
2024-04-14T01:34:17.268Z,99716.83
2024-04-14T01:37:18.579Z,99714.95
2024-04-14T01:40:19.937Z,99714.95
2024-04-14T01:43:21.218Z,99720.92
2024-04-14T01:46:22.569Z,99722.67
2024-04-14T01:49:23.949Z,99718.42
2024-04-14T01:52:25.868Z,99721.73
2024-04-14T01:55:27.422Z,99721.79
2024-04-14T01:58:28.878Z,99723.30
2024-04-14T02:01:30.304Z,99720.58
2024-04-14T02:04:33.642Z,99718.86
2024-04-14T02:07:35.245Z,99715.16
2024-04-14T02:10:40.427Z,99704.81
2024-04-14T02:13:41.985Z,99705.83
2024-04-14T02:16:43.346Z,99701.92
2024-04-14T02:19:44.675Z,99700.69
2024-04-14T02:22:45.976Z,99700.39
2024-04-14T02:25:57.626Z,99693.54
2024-04-14T02:28:59.067Z,99690.45
2024-04-14T02:32:00.395Z,99684.42
2024-04-14T02:35:01.977Z,99682.15
2024-04-14T02:38:03.441Z,99685.36
2024-04-14T02:41:05.211Z,99680.67
2024-04-14T02:44:06.456Z,99674.10
2024-04-14T02:47:07.833Z,99671.23
2024-04-14T02:50:09.237Z,99672.52
2024-04-14T02:53:10.598Z,99666.42
2024-04-14T02:56:12.001Z,99658.45
2024-04-14T02:59:13.443Z,99656.52
2024-04-14T03:02:14.855Z,99655.75
2024-04-14T03:05:16.183Z,99655.64
2024-04-14T03:08:17.579Z,99650.46
2024-04-14T03:11:18.999Z,99649.67
2024-04-14T03:14:20.447Z,99650.25
2024-04-14T03:17:21.845Z,99648.98
2024-04-14T03:20:23.208Z,99647.54
2024-04-14T03:23:25.963Z,99646.02
2024-04-14T03:26:27.377Z,99643.77
2024-04-14T03:29:28.666Z,99643.55
2024-04-14T03:32:30.058Z,99636.96
2024-04-14T03:35:31.386Z,99630.02
2024-04-14T03:38:33.639Z,99626.19
2024-04-14T03:41:35.108Z,99619.90
2024-04-14T03:44:36.437Z,99615.77
2024-04-14T03:47:37.862Z,99613.48
2024-04-14T03:50:39.238Z,99609.48
2024-04-14T03:53:40.577Z,99613.88
2024-04-14T03:56:42.090Z,99611.18
2024-04-14T03:59:44.040Z,99612.33
2024-04-14T04:02:45.691Z,99614.62
2024-04-14T04:05:54.706Z,99611.54
2024-04-14T04:08:56.141Z,99605.41
2024-04-14T04:11:57.464Z,99601.33
2024-04-14T04:14:59.072Z,99595.89
2024-04-14T04:18:00.711Z,99596.55
2024-04-14T04:21:12.344Z,99590.39
2024-04-14T04:24:14.095Z,99586.02
2024-04-14T04:27:15.675Z,99579.55
2024-04-14T04:30:17.205Z,99574.09
2024-04-14T04:33:22.213Z,99565.73
2024-04-14T04:36:24.006Z,99560.23
2024-04-14T04:39:25.708Z,99553.38
2024-04-14T04:42:30.389Z,99548.48
2024-04-14T04:45:34.626Z,99545.76
2024-04-14T04:48:36.455Z,99543.30
2024-04-14T04:51:38.147Z,99540.85
2024-04-14T04:54:39.710Z,99534.64
2024-04-14T04:57:41.280Z,99535.33
2024-04-14T05:00:53.885Z,99537.36
2024-04-14T05:03:55.378Z,99536.70
2024-04-14T05:06:56.838Z,99541.59
2024-04-14T05:10:00.392Z,99537.46
2024-04-14T05:13:02.150Z,99522.69
2024-04-14T05:16:03.793Z,99522.79
2024-04-14T05:19:05.540Z,99514.95
2024-04-14T05:22:07.018Z,99511.45
2024-04-14T05:25:08.499Z,99506.95
2024-04-14T05:28:10.057Z,99502.67
2024-04-14T05:31:14.171Z,99497.34
2024-04-14T05:34:15.621Z,99496.09
2024-04-14T05:37:16.998Z,99488.98
2024-04-14T05:40:18.272Z,99488.98
2024-04-14T05:43:19.759Z,99487.20
2024-04-14T05:46:21.621Z,99482.21
2024-04-14T05:49:23.132Z,99477.23
2024-04-14T05:52:24.604Z,99483.52
2024-04-14T05:55:26.318Z,99485.89
2024-04-14T05:58:27.846Z,99480.05
2024-04-14T06:01:29.397Z,99474.77
2024-04-14T06:04:30.887Z,99470.12
2024-04-14T06:07:35.259Z,99467.27
2024-04-14T06:10:37.922Z,99463.20
2024-04-14T06:13:39.409Z,99457.85
2024-04-14T06:16:40.876Z,99458.49
2024-04-14T06:19:42.508Z,99449.65
2024-04-14T06:22:43.899Z,99443.72
2024-04-14T06:25:45.500Z,99443.49
2024-04-14T06:28:46.928Z,99444.85
2024-04-14T06:31:48.334Z,99441.79
2024-04-14T06:34:49.700Z,99442.89
2024-04-14T06:37:51.108Z,99450.08
2024-04-14T06:40:52.477Z,99448.63
2024-04-14T06:43:53.948Z,99445.67
2024-04-14T06:46:55.309Z,99449.27
2024-04-14T06:49:56.858Z,99448.98
2024-04-14T06:52:58.357Z,99448.16
2024-04-14T06:55:59.790Z,99451.09
2024-04-14T06:59:01.210Z,99450.74
2024-04-14T07:02:02.762Z,99450.77
2024-04-14T07:05:04.831Z,99448.84
2024-04-14T07:08:06.573Z,99452.65
2024-04-14T07:11:09.885Z,99453.96
2024-04-14T07:14:11.242Z,99455.21
2024-04-14T07:17:13.926Z,99459.67
2024-04-14T07:20:15.351Z,99455.63
2024-04-14T07:23:16.937Z,99466.34
2024-04-14T07:26:18.354Z,99464.02
2024-04-14T07:29:19.891Z,99459.63
2024-04-14T07:32:21.403Z,99458.89
2024-04-14T07:35:22.825Z,99451.64
2024-04-14T07:38:24.295Z,99451.98
2024-04-14T07:41:25.661Z,99453.31
2024-04-14T07:44:27.207Z,99455.54
2024-04-14T07:47:28.713Z,99448.48
2024-04-14T07:50:31.450Z,99442.59
2024-04-14T07:53:34.217Z,99445.73
2024-04-14T07:56:40.503Z,99440.66
2024-04-14T07:59:44.615Z,99435.47
2024-04-14T08:02:46.713Z,99440.95
2024-04-14T08:05:48.096Z,99439.92
2024-04-14T08:08:49.544Z,99441.86
2024-04-14T08:11:51.062Z,99447.62
2024-04-14T08:14:52.472Z,99445.52
2024-04-14T08:17:54.680Z,99442.83
2024-04-14T08:20:57.827Z,99437.17
2024-04-14T08:23:59.598Z,99436.38
2024-04-14T08:27:01.033Z,99436.28
2024-04-14T08:30:02.443Z,99436.56
2024-04-14T08:33:04.143Z,99436.73
2024-04-14T08:36:05.977Z,99436.27
2024-04-14T08:39:07.600Z,99425.38
2024-04-14T08:42:11.001Z,99420.65
2024-04-14T08:45:14.712Z,99422.77
2024-04-14T08:48:18.277Z,99422.85
2024-04-14T08:51:21.618Z,99415.77
2024-04-14T08:54:23.479Z,99412.04
2024-04-14T08:57:26.225Z,99408.27
2024-04-14T09:00:29.474Z,99408.28
2024-04-14T09:03:31.803Z,99402.16
2024-04-14T09:06:33.977Z,99402.42
2024-04-14T09:09:36.380Z,99400.36
2024-04-14T09:12:37.937Z,99390.64
2024-04-14T09:15:40.662Z,99389.49
2024-04-14T09:18:44.350Z,99390.97
2024-04-14T09:21:46.712Z,99386.55
2024-04-14T09:24:48.307Z,99383.63
2024-04-14T09:27:49.923Z,99379.50
2024-04-14T09:30:54.829Z,99378.11
2024-04-14T09:33:56.926Z,99375.17
2024-04-14T09:37:00.803Z,99376.27
2024-04-14T09:40:06.143Z,99370.02
2024-04-14T09:43:07.771Z,99373.34
2024-04-14T09:46:09.726Z,99377.44
2024-04-14T09:49:11.250Z,99370.60
2024-04-14T09:52:13.629Z,99370.88
2024-04-14T09:55:15.145Z,99366.23
2024-04-14T09:58:16.649Z,99370.11
2024-04-14T10:01:22.855Z,99365.49
2024-04-14T10:04:24.749Z,99365.52
2024-04-14T10:07:27.433Z,99366.20
2024-04-14T10:10:29.034Z,99365.81
2024-04-14T10:13:30.662Z,99362.27
2024-04-14T10:16:32.107Z,99360.43
2024-04-14T10:19:39.569Z,99362.58
2024-04-14T10:22:44.132Z,99358.42
2024-04-14T10:25:49.062Z,99356.69
2024-04-14T10:28:51.665Z,99353.34
2024-04-14T10:31:53.059Z,99356.58
2024-04-14T10:34:54.715Z,99353.33
2024-04-14T10:37:56.737Z,99355.98
2024-04-14T10:40:58.397Z,99354.05
2024-04-14T10:43:59.844Z,99347.15
2024-04-14T10:47:01.374Z,99343.41
2024-04-14T10:50:03.159Z,99335.73
2024-04-14T10:53:05.262Z,99331.57
2024-04-14T10:56:09.192Z,99336.29
2024-04-14T10:59:10.580Z,99335.70
2024-04-14T11:02:12.043Z,99331.83
2024-04-14T11:05:13.686Z,99327.13
2024-04-14T11:08:15.266Z,99327.70
2024-04-14T11:11:16.936Z,99326.34
2024-04-14T11:14:18.787Z,99319.75
2024-04-14T11:17:20.185Z,99320.44
2024-04-14T11:20:21.755Z,99326.05
2024-04-14T11:23:23.406Z,99321.67
2024-04-14T11:26:24.791Z,99319.77
2024-04-14T11:29:27.442Z,99316.16
2024-04-14T11:32:29.032Z,99315.58
2024-04-14T11:35:30.450Z,99310.38
2024-04-14T11:38:31.832Z,99308.56
2024-04-14T11:41:33.291Z,99312.30
2024-04-14T11:44:34.786Z,99313.31
2024-04-14T11:47:36.282Z,99312.98
2024-04-14T11:50:37.734Z,99311.59
2024-04-14T11:53:39.196Z,99310.82
2024-04-14T11:56:40.611Z,99312.27
2024-04-14T11:59:42.008Z,99306.64
2024-04-14T12:02:43.483Z,99308.64
2024-04-14T12:05:44.987Z,99310.64
2024-04-14T12:08:46.371Z,99303.80
2024-04-14T12:11:47.798Z,99303.73
2024-04-14T12:14:49.263Z,99305.72
2024-04-14T12:17:50.734Z,99309.11
2024-04-14T12:20:52.300Z,99311.98
2024-04-14T12:23:53.710Z,99314.96
2024-04-14T12:26:56.337Z,99318.41
2024-04-14T12:29:57.898Z,99311.70
2024-04-14T12:32:59.450Z,99304.61
2024-04-14T12:36:00.936Z,99307.10
2024-04-14T12:39:02.369Z,99307.51
2024-04-14T12:42:04.761Z,99306.85
2024-04-14T12:45:07.055Z,99302.52
2024-04-14T12:48:11.356Z,99300.21
2024-04-14T12:51:13.032Z,99299.32
2024-04-14T12:54:14.392Z,99294.29
2024-04-14T12:57:15.754Z,99295.96
2024-04-14T13:00:17.250Z,99289.76
2024-04-14T13:03:18.657Z,99295.90
2024-04-14T13:06:20.033Z,99295.13
2024-04-14T13:09:21.395Z,99290.37
2024-04-14T13:12:22.816Z,99285.11
2024-04-14T13:15:24.255Z,99282.04
2024-04-14T13:18:25.723Z,99273.97
2024-04-14T13:21:27.232Z,99265.92
2024-04-14T13:24:28.779Z,99260.18
2024-04-14T13:27:30.112Z,99263.75
2024-04-14T13:30:32.601Z,99261.62
2024-04-14T13:33:34.151Z,99260.66
2024-04-14T13:36:35.758Z,99263.38
2024-04-14T13:39:37.273Z,99258.80
2024-04-14T13:42:38.720Z,99255.47
2024-04-14T13:45:40.173Z,99249.36
2024-04-14T13:48:41.602Z,99249.69
2024-04-14T13:51:43.098Z,99246.67
2024-04-14T13:54:44.574Z,99248.67
2024-04-14T13:57:45.986Z,99249.73
2024-04-14T14:00:52.349Z,99247.98
2024-04-14T14:03:54.054Z,99241.21
2024-04-14T14:06:55.571Z,99235.56
2024-04-14T14:09:57.026Z,99238.50
2024-04-14T14:12:58.573Z,99230.77
2024-04-14T14:16:00.354Z,99225.71
2024-04-14T14:19:02.047Z,99224.95
2024-04-14T14:22:03.536Z,99220.27
2024-04-14T14:25:05.402Z,99222.02
2024-04-14T14:28:07.053Z,99224.44
2024-04-14T14:31:08.958Z,99218.95
2024-04-14T14:34:10.466Z,99213.42
2024-04-14T14:37:11.937Z,99208.69
2024-04-14T14:40:13.429Z,99199.04
2024-04-14T14:43:14.848Z,99193.94
2024-04-14T14:46:16.547Z,99190.62
2024-04-14T14:49:18.056Z,99196.42
2024-04-14T14:52:19.697Z,99204.44
2024-04-14T14:55:27.730Z,99205.20
2024-04-14T14:58:29.570Z,99208.40
2024-04-14T15:01:31.035Z,99195.88
2024-04-14T15:04:32.602Z,99195.73
2024-04-14T15:07:34.136Z,99194.04
2024-04-14T15:10:51.314Z,99198.66
2024-04-14T15:13:52.678Z,99205.77
2024-04-14T15:16:54.572Z,99196.47
2024-04-14T15:19:56.016Z,99195.67
2024-04-14T15:22:57.388Z,99186.88
2024-04-14T15:25:59.037Z,99187.98
2024-04-14T15:29:00.433Z,99201.98
2024-04-14T15:32:01.896Z,99211.16
2024-04-14T15:35:03.508Z,99219.70
2024-04-14T15:38:04.940Z,99270.91
2024-04-14T15:41:06.503Z,99279.15
2024-04-14T15:44:14.936Z,99278.44
2024-04-14T15:47:23.293Z,99281.45
2024-04-14T15:50:24.680Z,99264.70
2024-04-14T15:53:26.116Z,99267.70
2024-04-14T15:56:27.578Z,99270.48
2024-04-14T15:59:28.975Z,99273.48
2024-04-14T16:02:33.815Z,99277.98
2024-04-14T16:05:42.957Z,99278.89
2024-04-14T16:08:44.828Z,99277.45
2024-04-14T16:11:46.220Z,99269.95
2024-04-14T16:14:50.988Z,99273.73
2024-04-14T16:17:52.849Z,99262.33
2024-04-14T16:20:54.364Z,99256.50
2024-04-14T16:23:55.937Z,99258.81
2024-04-14T16:26:57.830Z,99256.34
2024-04-14T16:30:17.787Z,99245.40
2024-04-14T16:33:38.154Z,99245.14
2024-04-14T16:36:58.550Z,99244.34
2024-04-14T16:40:00.074Z,99247.77
2024-04-14T16:43:01.638Z,99243.96
2024-04-14T16:46:03.495Z,99243.86
2024-04-14T16:49:05.249Z,99242.59
2024-04-14T16:52:07.042Z,99244.44
2024-04-14T16:55:11.823Z,99250.77
2024-04-14T16:58:15.824Z,99254.98
2024-04-14T17:01:17.367Z,99253.23
2024-04-14T17:04:19.039Z,99255.84
2024-04-14T17:07:20.730Z,99258.04
2024-04-14T17:10:22.214Z,99254.71
2024-04-14T17:13:23.828Z,99253.96
2024-04-14T17:16:25.253Z,99253.27
2024-04-14T17:19:26.817Z,99252.41
2024-04-14T17:22:28.798Z,99249.95
2024-04-14T17:25:30.394Z,99251.70
2024-04-14T17:28:31.908Z,99251.35
2024-04-14T17:31:33.374Z,99261.06
2024-04-14T17:34:34.821Z,99282.99
2024-04-14T17:41:40.377Z,99288.60
2024-04-14T17:44:41.763Z,99285.05
2024-04-14T17:47:43.289Z,99295.37
2024-04-14T17:50:52.146Z,99296.96
2024-04-14T17:53:53.690Z,99292.36
2024-04-14T17:56:55.123Z,99296.73
2024-04-14T17:59:56.523Z,99304.53
2024-04-14T18:02:57.859Z,99309.84
2024-04-14T18:05:59.518Z,99305.86
2024-04-14T18:09:00.891Z,99296.10
2024-04-14T18:12:02.311Z,99294.48
2024-04-14T18:15:04.056Z,99337.80
2024-04-14T18:18:05.789Z,99328.27
2024-04-14T18:21:07.351Z,99332.37
2024-04-14T18:24:08.751Z,99332.20
2024-04-14T18:27:10.258Z,99321.86
2024-04-14T18:30:11.710Z,99314.11
2024-04-14T18:33:15.775Z,99319.63
2024-04-14T18:36:19.099Z,99332.05
2024-04-14T18:39:21.029Z,99330.80
2024-04-14T18:42:22.454Z,99327.12
2024-04-14T18:45:23.895Z,99330.27
2024-04-14T18:48:32.939Z,99328.70
2024-04-14T18:51:34.475Z,99305.69
2024-04-14T18:54:36.002Z,99311.00
2024-04-14T18:57:37.570Z,99315.13
2024-04-14T19:35:23.511Z,99338.41
2024-04-14T19:38:43.777Z,99345.27
2024-04-14T19:42:04.199Z,99353.17
2024-04-14T19:45:24.228Z,99352.24
2024-04-14T19:48:26.191Z,99344.58
2024-04-14T19:51:27.627Z,99348.98
2024-04-14T19:54:29.046Z,99337.88
2024-04-14T19:57:30.441Z,99328.19
2024-04-14T20:00:31.897Z,99331.45
2024-04-14T20:03:33.339Z,99335.86
2024-04-14T20:06:34.746Z,99339.19
2024-04-14T20:09:36.275Z,99343.51
2024-04-14T20:12:37.792Z,99342.79
2024-04-14T20:15:39.297Z,99342.55
2024-04-14T20:18:40.805Z,99340.02
2024-04-14T20:21:42.283Z,99337.89
2024-04-14T20:24:43.694Z,99334.28
2024-04-14T20:27:45.115Z,99329.38
2024-04-14T20:30:46.524Z,99317.72
2024-04-14T20:33:47.871Z,99305.42
2024-04-14T20:36:49.350Z,99332.77
2024-04-14T20:39:50.744Z,99398.64
